createdAt,value
2023-03-25T00:01:19.461Z,13.70
2023-03-25T00:03:51.142Z,15.10
2023-03-25T00:06:20.220Z,13.63
2023-03-25T00:08:48.939Z,14.43
2023-03-25T00:11:16.870Z,15.45
2023-03-25T00:13:45.390Z,18.05
2023-03-25T00:16:13.130Z,14.00
2023-03-25T00:18:41.525Z,15.63
2023-03-25T00:21:12.266Z,13.80
2023-03-25T00:23:42.034Z,13.57
2023-03-25T00:26:11.043Z,15.57
2023-03-25T00:28:39.966Z,14.85
2023-03-25T00:31:16.904Z,15.60
2023-03-25T00:33:45.850Z,18.63
2023-03-25T00:36:15.511Z,15.80
2023-03-25T00:38:45.749Z,19.77
2023-03-25T00:41:26.343Z,23.70
2023-03-25T00:43:57.257Z,21.90
2023-03-25T00:46:29.713Z,19.30
2023-03-25T00:48:59.583Z,19.75
2023-03-25T00:51:31.451Z,18.27
2023-03-25T00:54:03.692Z,18.63
2023-03-25T00:56:31.820Z,17.40
2023-03-25T00:59:00.845Z,18.63
2023-03-25T01:01:29.542Z,19.23
2023-03-25T01:04:01.013Z,18.48
2023-03-25T01:06:33.802Z,16.45
2023-03-25T01:09:05.381Z,19.33
2023-03-25T01:11:35.032Z,18.52
2023-03-25T01:14:05.830Z,16.95
2023-03-25T01:16:34.365Z,19.67
2023-03-25T01:19:02.966Z,18.00
2023-03-25T01:21:34.184Z,19.73
2023-03-25T01:24:03.677Z,17.38
2023-03-25T01:26:31.947Z,16.60
2023-03-25T01:29:00.722Z,19.27
2023-03-25T01:31:30.717Z,16.63
2023-03-25T01:33:59.564Z,18.00
2023-03-25T01:36:31.125Z,18.20
2023-03-25T01:39:00.203Z,16.70
2023-03-25T01:41:39.140Z,15.98
2023-03-25T01:44:20.072Z,16.92
2023-03-25T01:46:49.868Z,22.08
2023-03-25T01:49:26.644Z,20.00
2023-03-25T01:51:58.206Z,24.02
2023-03-25T01:54:27.709Z,23.33
2023-03-25T01:56:56.566Z,21.35
2023-03-25T01:59:27.885Z,18.02
2023-03-25T02:01:57.463Z,19.42
2023-03-25T02:04:35.163Z,18.15
2023-03-25T02:07:03.751Z,19.92
2023-03-25T02:09:32.417Z,20.00
2023-03-25T02:12:00.673Z,21.63
2023-03-25T02:14:34.916Z,20.50
2023-03-25T02:17:23.798Z,21.15
2023-03-25T02:20:34.217Z,19.60
2023-03-25T02:23:22.345Z,18.75
2023-03-25T02:26:30.274Z,18.05
2023-03-25T02:29:24.369Z,25.08
2023-03-25T02:32:16.843Z,20.80
2023-03-25T02:35:04.884Z,21.77
2023-03-25T02:37:52.646Z,21.45
2023-03-25T02:40:44.829Z,22.85
2023-03-25T02:43:25.693Z,24.77
2023-03-25T02:45:57.047Z,23.25
2023-03-25T02:48:36.876Z,26.33
2023-03-25T02:51:12.344Z,26.52
2023-03-25T02:53:43.548Z,25.35
2023-03-25T02:56:15.217Z,23.33
2023-03-25T02:58:44.920Z,27.48
2023-03-25T03:01:15.359Z,26.25
2023-03-25T03:03:44.162Z,24.67
2023-03-25T03:06:17.631Z,27.15
2023-03-25T03:08:52.026Z,27.92
2023-03-25T03:11:23.969Z,26.98
2023-03-25T03:13:53.010Z,28.67
2023-03-25T03:16:40.027Z,29.13
2023-03-25T03:19:41.766Z,24.10
2023-03-25T03:22:53.047Z,23.73
2023-03-25T03:25:46.125Z,28.33
2023-03-25T03:28:22.792Z,22.52
2023-03-25T03:31:08.914Z,26.33
2023-03-25T03:33:55.354Z,27.13
2023-03-25T03:36:31.057Z,25.10
2023-03-25T03:39:07.519Z,30.45
2023-03-25T03:41:39.179Z,29.85
2023-03-25T03:44:09.436Z,25.05
2023-03-25T03:46:42.627Z,30.27
2023-03-25T03:49:14.469Z,19.25
2023-03-25T03:51:49.778Z,26.17
2023-03-25T03:54:47.859Z,27.92
2023-03-25T03:57:21.704Z,30.20
2023-03-25T03:59:55.958Z,26.25
2023-03-25T04:02:44.681Z,28.45
2023-03-25T04:05:16.516Z,23.58
2023-03-25T04:07:57.519Z,28.65
2023-03-25T04:10:52.902Z,26.65
2023-03-25T04:13:22.891Z,27.83
2023-03-25T04:15:50.894Z,28.63
2023-03-25T04:18:23.470Z,29.05
2023-03-25T04:20:51.767Z,30.13
2023-03-25T04:23:20.494Z,28.52
2023-03-25T04:25:50.344Z,26.27
2023-03-25T04:28:19.040Z,30.50
2023-03-25T04:30:57.427Z,27.95
2023-03-25T04:33:25.870Z,41.45
2023-03-25T04:35:54.500Z,33.35
2023-03-25T04:38:22.903Z,30.80
2023-03-25T04:40:50.718Z,27.63
2023-03-25T04:43:19.133Z,31.08
2023-03-25T04:45:55.033Z,33.45
2023-03-25T04:48:26.528Z,34.15
2023-03-25T04:50:56.181Z,28.13
2023-03-25T04:53:24.408Z,30.42
2023-03-25T04:55:52.663Z,35.53
2023-03-25T04:58:21.988Z,33.20
2023-03-25T05:00:52.391Z,33.80
2023-03-25T05:03:27.322Z,37.53
2023-03-25T05:05:55.128Z,35.90
2023-03-25T05:08:23.441Z,31.10
2023-03-25T05:10:51.473Z,35.78
2023-03-25T05:13:20.159Z,33.15
2023-03-25T05:15:48.658Z,32.97
2023-03-25T05:18:17.278Z,35.97
2023-03-25T05:20:47.260Z,35.63
2023-03-25T05:23:18.752Z,35.63
2023-03-25T05:25:48.689Z,32.85
2023-03-25T05:28:18.747Z,37.72
2023-03-25T05:30:48.177Z,37.03
2023-03-25T05:33:18.020Z,34.67
2023-03-25T05:35:46.936Z,32.92
2023-03-25T05:38:19.631Z,34.55
2023-03-25T05:40:49.059Z,31.95
2023-03-25T05:43:22.908Z,32.95
2023-03-25T05:45:51.430Z,32.47
2023-03-25T05:48:20.559Z,33.15
2023-03-25T05:50:48.862Z,35.45
2023-03-25T05:53:17.221Z,34.80
2023-03-25T05:55:45.190Z,32.58
2023-03-25T05:58:13.885Z,36.13
2023-03-25T06:00:41.815Z,32.70
2023-03-25T06:03:10.804Z,36.22
2023-03-25T06:05:41.682Z,33.67
2023-03-25T06:08:10.119Z,34.67
2023-03-25T06:10:39.267Z,37.25
2023-03-25T06:13:07.599Z,42.58
2023-03-25T06:15:39.353Z,39.38
2023-03-25T06:18:07.797Z,40.03
2023-03-25T06:20:36.324Z,38.50
2023-03-25T06:23:05.147Z,35.63
2023-03-25T06:25:33.597Z,33.47
2023-03-25T06:28:03.692Z,34.15
2023-03-25T06:30:31.455Z,34.08
2023-03-25T06:33:03.554Z,35.45
2023-03-25T06:35:31.474Z,34.08
2023-03-25T06:37:59.807Z,38.10
2023-03-25T06:40:39.328Z,34.85
2023-03-25T06:43:08.136Z,31.25
2023-03-25T06:45:35.996Z,30.73
2023-03-25T06:48:21.164Z,29.27
2023-03-25T06:50:48.994Z,31.33
2023-03-25T06:53:17.677Z,30.48
2023-03-25T06:55:45.720Z,30.98
2023-03-25T06:58:14.640Z,27.40
2023-03-25T07:00:42.455Z,32.85
2023-03-25T07:03:11.947Z,30.73
2023-03-25T07:05:42.266Z,25.48
2023-03-25T07:08:11.361Z,27.20
2023-03-25T07:10:39.178Z,32.97
2023-03-25T07:13:07.675Z,29.48
2023-03-25T07:15:36.256Z,29.98
2023-03-25T07:18:05.128Z,26.60
2023-03-25T07:20:33.741Z,26.33
2023-03-25T07:23:02.170Z,29.10
2023-03-25T07:25:30.851Z,24.73
2023-03-25T07:27:59.478Z,27.30
2023-03-25T07:30:27.260Z,24.92
2023-03-25T07:32:56.739Z,22.50
2023-03-25T07:35:24.637Z,25.30
2023-03-25T07:37:53.121Z,22.55
2023-03-25T07:40:21.770Z,20.55
2023-03-25T07:42:50.206Z,22.05
2023-03-25T07:45:44.707Z,25.25
2023-03-25T07:48:16.893Z,18.73
2023-03-25T07:50:46.238Z,20.75
2023-03-25T07:53:14.900Z,23.13
2023-03-25T07:55:43.524Z,19.00
2023-03-25T07:58:13.029Z,22.73
2023-03-25T08:00:40.887Z,18.17
2023-03-25T08:03:12.269Z,22.02
2023-03-25T08:05:47.823Z,19.30
2023-03-25T08:08:16.738Z,19.92
2023-03-25T08:10:46.842Z,19.17
2023-03-25T08:13:15.258Z,18.70
2023-03-25T08:15:43.384Z,15.10
2023-03-25T08:18:12.147Z,19.23
2023-03-25T08:20:40.933Z,19.67
2023-03-25T08:23:10.715Z,16.17
2023-03-25T08:25:40.194Z,18.70
2023-03-25T08:28:08.820Z,17.63
2023-03-25T08:30:38.623Z,14.20
2023-03-25T08:33:07.698Z,16.10
2023-03-25T08:35:36.838Z,15.15
2023-03-25T08:38:08.594Z,15.75
2023-03-25T08:40:36.874Z,14.15
2023-03-25T08:43:06.849Z,13.70
2023-03-25T08:45:36.636Z,17.42
2023-03-25T08:48:05.930Z,19.02
2023-03-25T08:50:33.810Z,19.92
2023-03-25T08:53:02.300Z,12.80
2023-03-25T08:55:30.159Z,14.25
2023-03-25T08:58:02.907Z,14.00
2023-03-25T09:00:32.513Z,16.02
2023-03-25T09:03:01.308Z,15.38
2023-03-25T09:05:29.653Z,13.25
2023-03-25T09:07:58.138Z,13.10
2023-03-25T09:10:26.070Z,13.70
2023-03-25T09:12:54.686Z,11.35
2023-03-25T09:15:23.111Z,12.93
2023-03-25T09:17:51.851Z,13.07
2023-03-25T09:20:20.475Z,18.30
2023-03-25T09:22:48.678Z,15.00
2023-03-25T09:25:17.007Z,16.25
2023-03-25T09:27:45.375Z,12.18
2023-03-25T09:30:14.690Z,9.18
2023-03-25T09:32:43.094Z,10.10
2023-03-25T09:35:11.414Z,11.80
2023-03-25T09:37:39.705Z,12.70
2023-03-25T09:40:08.495Z,8.93
2023-03-25T09:43:02.158Z,11.15
2023-03-25T09:45:36.997Z,12.25
2023-03-25T09:48:25.404Z,12.90
2023-03-25T09:50:54.745Z,9.05
2023-03-25T09:53:44.401Z,10.90
2023-03-25T09:56:22.122Z,7.63
2023-03-25T09:58:53.400Z,11.77
2023-03-25T10:01:58.679Z,9.50
2023-03-25T10:04:29.720Z,9.32
2023-03-25T10:07:22.384Z,9.95
2023-03-25T10:12:31.396Z,9.50
2023-03-25T10:15:24.713Z,6.50
2023-03-25T10:18:03.365Z,7.00
2023-03-25T10:21:02.315Z,7.78
2023-03-25T10:23:47.686Z,7.47
2023-03-25T10:26:23.366Z,12.98
2023-03-25T10:29:04.153Z,9.65
2023-03-25T10:31:37.248Z,7.05
2023-03-25T10:34:09.197Z,8.50
2023-03-25T10:36:43.678Z,6.68
2023-03-25T10:39:19.166Z,11.07
2023-03-25T10:42:18.356Z,6.30
2023-03-25T10:44:47.813Z,8.48
2023-03-25T10:47:24.267Z,6.80
2023-03-25T10:49:53.421Z,8.85
2023-03-25T10:52:21.824Z,9.27
2023-03-25T10:54:52.689Z,6.85
2023-03-25T10:57:26.684Z,6.40
2023-03-25T10:59:57.638Z,5.43
2023-03-25T11:02:29.396Z,7.30
2023-03-25T11:05:00.847Z,7.97
2023-03-25T11:07:45.219Z,8.55
2023-03-25T11:10:27.629Z,6.22
2023-03-25T11:12:58.879Z,6.65
2023-03-25T11:15:35.772Z,9.95
2023-03-25T11:18:38.522Z,5.68
2023-03-25T11:21:12.152Z,10.50
2023-03-25T11:23:48.149Z,6.80
2023-03-25T11:26:22.501Z,6.13
2023-03-25T11:29:15.106Z,5.68
2023-03-25T11:31:43.802Z,7.22
2023-03-25T11:34:25.156Z,8.75
2023-03-25T11:37:02.578Z,5.75
2023-03-25T11:39:37.009Z,4.35
2023-03-25T11:42:30.375Z,5.32
2023-03-25T11:45:00.047Z,5.43
2023-03-25T11:47:38.289Z,5.53
2023-03-25T11:50:07.825Z,3.67
2023-03-25T11:52:44.396Z,7.78
2023-03-25T11:55:33.368Z,5.47
2023-03-25T11:58:02.371Z,7.70
2023-03-25T12:00:47.856Z,5.95
2023-03-25T12:03:23.546Z,7.70
2023-03-25T12:06:19.919Z,4.47
2023-03-25T12:08:52.437Z,6.20
2023-03-25T12:11:26.228Z,10.15
2023-03-25T12:14:19.629Z,6.90
2023-03-25T12:17:00.798Z,6.03
2023-03-25T12:19:47.331Z,9.10
2023-03-25T12:22:34.688Z,6.78
2023-03-25T12:25:27.502Z,10.82
2023-03-25T12:28:01.899Z,5.20
2023-03-25T12:30:52.067Z,6.53
2023-03-25T12:33:40.926Z,8.90
2023-03-25T12:36:24.824Z,6.13
2023-03-25T12:39:18.278Z,3.55
2023-03-25T12:42:20.321Z,5.63
2023-03-25T12:45:04.941Z,4.88
2023-03-25T12:47:59.158Z,5.30
2023-03-25T12:50:44.514Z,3.47
2023-03-25T12:53:33.375Z,2.72
2023-03-25T12:56:09.010Z,3.65
2023-03-25T12:58:52.759Z,5.60
2023-03-25T13:02:06.041Z,12.40
2023-03-25T13:04:52.445Z,7.32
2023-03-25T13:07:28.994Z,9.20
2023-03-25T13:10:16.035Z,8.95
2023-03-25T13:12:57.927Z,8.82
2023-03-25T13:15:31.294Z,10.52
2023-03-25T13:18:07.770Z,7.47
2023-03-25T13:20:40.256Z,7.57
2023-03-25T13:23:14.868Z,8.45
2023-03-25T13:25:49.386Z,9.13
2023-03-25T13:28:23.165Z,9.35
2023-03-25T13:30:51.228Z,7.45
2023-03-25T13:33:45.823Z,6.57
2023-03-25T13:36:16.532Z,8.45
2023-03-25T13:38:51.091Z,6.32
2023-03-25T13:41:22.219Z,6.38
2023-03-25T13:43:55.043Z,13.70
2023-03-25T13:46:47.654Z,7.97
2023-03-25T13:49:24.291Z,10.15
2023-03-25T13:51:52.621Z,12.30
2023-03-25T13:54:41.350Z,6.55
2023-03-25T13:57:40.158Z,8.93
2023-03-25T14:00:25.012Z,7.75
2023-03-25T14:03:18.269Z,7.68
2023-03-25T14:06:09.388Z,8.90
2023-03-25T14:08:52.537Z,9.13
2023-03-25T14:11:49.856Z,7.13
2023-03-25T14:14:22.719Z,10.43
2023-03-25T14:16:59.921Z,6.90
2023-03-25T14:19:38.597Z,14.68
2023-03-25T14:22:28.760Z,4.18
2023-03-25T14:24:57.520Z,7.85
2023-03-25T14:27:32.945Z,3.65
2023-03-25T14:30:15.808Z,8.98
2023-03-25T14:32:45.991Z,5.10
2023-03-25T14:35:38.690Z,3.17
2023-03-25T14:38:12.005Z,4.15
2023-03-25T14:40:50.860Z,8.98
2023-03-25T14:43:49.040Z,2.42
2023-03-25T14:46:22.345Z,5.65
2023-03-25T14:49:30.544Z,3.03
2023-03-25T14:51:59.326Z,3.78
2023-03-25T14:54:33.016Z,4.38
2023-03-25T14:57:11.875Z,4.93
2023-03-25T14:59:44.286Z,4.15
2023-03-25T15:02:24.694Z,8.00
2023-03-25T15:05:15.353Z,5.38
2023-03-25T15:08:02.303Z,4.45
2023-03-25T15:10:36.958Z,4.20
2023-03-25T15:13:13.573Z,3.15
2023-03-25T15:15:49.754Z,4.22
2023-03-25T15:18:43.219Z,1.45
2023-03-25T15:21:11.387Z,4.70
2023-03-25T15:23:48.295Z,2.53
2023-03-25T15:26:47.479Z,2.50
2023-03-25T15:29:17.756Z,1.70
2023-03-25T15:32:13.692Z,1.67
2023-03-25T15:35:03.920Z,1.08
2023-03-25T15:37:55.260Z,0.63
2023-03-25T15:40:34.747Z,1.10
2023-03-25T15:43:33.017Z,0.80
2023-03-25T15:46:07.437Z,1.17
2023-03-25T15:48:54.039Z,2.40
2023-03-25T15:52:02.892Z,11.30
2023-03-25T15:54:37.389Z,3.33
2023-03-25T15:57:29.858Z,3.60
2023-03-25T16:00:13.822Z,4.82
2023-03-25T16:05:19.445Z,1.55
2023-03-25T16:07:47.921Z,2.17
2023-03-25T16:10:32.787Z,1.63
2023-03-25T16:13:04.624Z,2.33
2023-03-25T16:15:36.101Z,2.95
2023-03-25T16:18:06.802Z,2.90
2023-03-25T16:20:37.238Z,1.42
2023-03-25T16:23:08.038Z,3.90
2023-03-25T16:25:38.847Z,2.75
2023-03-25T16:28:19.089Z,4.75
2023-03-25T16:30:53.864Z,2.08
2023-03-25T16:33:33.381Z,3.80
2023-03-25T16:36:04.856Z,5.20
2023-03-25T16:38:33.701Z,4.93
2023-03-25T16:41:09.712Z,2.80
2023-03-25T16:43:38.144Z,4.28
2023-03-25T16:46:08.994Z,5.97
2023-03-25T16:48:40.233Z,7.10
2023-03-25T16:51:17.987Z,4.93
2023-03-25T16:53:50.579Z,5.00
2023-03-25T16:56:19.333Z,4.78
2023-03-25T16:59:14.543Z,4.35
2023-03-25T17:01:45.422Z,7.30
2023-03-25T17:04:44.328Z,4.97
2023-03-25T17:07:15.947Z,6.07
2023-03-25T17:09:45.605Z,6.80
2023-03-25T17:12:20.416Z,6.88
2023-03-25T17:14:50.863Z,6.93
2023-03-25T17:17:28.280Z,9.00
2023-03-25T17:19:56.707Z,12.20
2023-03-25T17:22:36.880Z,8.00
2023-03-25T17:25:25.971Z,8.38
2023-03-25T17:28:01.456Z,8.48
2023-03-25T17:30:29.263Z,11.82
2023-03-25T17:33:10.572Z,16.30
2023-03-25T17:35:39.359Z,17.17
2023-03-25T17:38:09.239Z,16.52
2023-03-25T17:40:37.511Z,10.70
2023-03-25T17:43:05.812Z,17.70
2023-03-25T17:45:33.956Z,13.63
2023-03-25T17:48:02.115Z,12.57
2023-03-25T17:50:33.439Z,13.00
2023-03-25T17:53:02.290Z,23.35
2023-03-25T17:55:30.862Z,217.15
2023-03-25T17:57:59.334Z,172.55
2023-03-25T18:00:28.543Z,108.68
2023-03-25T18:02:57.491Z,122.80
2023-03-25T18:05:26.846Z,228.55
2023-03-25T18:07:58.402Z,133.00
2023-03-25T18:10:26.813Z,22.38
2023-03-25T18:12:59.361Z,16.60
2023-03-25T18:15:30.066Z,13.20
2023-03-25T18:18:00.715Z,14.18
2023-03-25T18:20:32.306Z,16.17
2023-03-25T18:23:01.931Z,17.08
2023-03-25T18:25:34.830Z,18.63
2023-03-25T18:28:06.632Z,19.30
2023-03-25T18:30:52.994Z,22.27
2023-03-25T18:33:32.400Z,21.48
2023-03-25T18:36:02.306Z,19.40
2023-03-25T18:38:32.494Z,18.52
2023-03-25T18:41:00.516Z,17.98
2023-03-25T18:43:29.181Z,19.13
2023-03-25T18:45:57.572Z,18.30
2023-03-25T18:48:26.006Z,20.25
2023-03-25T18:50:57.306Z,20.65
2023-03-25T18:53:28.795Z,19.70
2023-03-25T18:56:00.503Z,19.13
2023-03-25T18:58:32.351Z,12.30
2023-03-25T19:01:03.202Z,16.13
2023-03-25T19:03:39.622Z,19.42
2023-03-25T19:06:11.977Z,17.35
2023-03-25T19:08:41.676Z,17.83
2023-03-25T19:11:20.927Z,14.77
2023-03-25T19:13:54.421Z,14.68
2023-03-25T19:16:22.543Z,16.13
2023-03-25T19:18:50.824Z,19.25
2023-03-25T19:21:21.047Z,16.20
2023-03-25T19:23:50.091Z,15.57
2023-03-25T19:26:18.466Z,18.65
2023-03-25T19:28:46.852Z,16.65
2023-03-25T19:31:17.193Z,17.80
2023-03-25T19:33:46.972Z,176.90
2023-03-25T19:36:20.064Z,82.05
2023-03-25T19:38:49.658Z,24.13
2023-03-25T19:41:19.133Z,15.43
2023-03-25T19:43:49.573Z,14.77
2023-03-25T19:46:19.625Z,19.13
2023-03-25T19:48:52.811Z,21.08
2023-03-25T19:51:26.219Z,28.42
2023-03-25T19:53:56.777Z,13.48
2023-03-25T19:56:26.035Z,16.85
2023-03-25T19:58:55.247Z,18.52
2023-03-25T20:01:24.707Z,14.95
2023-03-25T20:03:53.354Z,13.80
2023-03-25T20:06:21.246Z,14.13
2023-03-25T20:08:49.131Z,18.42
2023-03-25T20:11:17.399Z,9.95
2023-03-25T20:13:45.847Z,8.18
2023-03-25T20:16:13.590Z,10.60
2023-03-25T20:18:42.045Z,15.50
2023-03-25T20:21:10.615Z,9.52
2023-03-25T20:23:38.978Z,8.93
2023-03-25T20:26:06.872Z,6.60
2023-03-25T20:28:36.641Z,10.38
2023-03-25T20:31:20.885Z,49.25
2023-03-25T20:33:50.583Z,21.13
2023-03-25T20:36:20.155Z,13.70
2023-03-25T20:38:57.046Z,8.00
2023-03-25T20:41:26.393Z,9.25
2023-03-25T20:43:54.427Z,7.60
2023-03-25T20:46:25.646Z,12.68
2023-03-25T20:48:54.156Z,8.40
2023-03-25T20:51:22.139Z,9.48
2023-03-25T20:53:53.715Z,8.65
2023-03-25T20:56:21.737Z,9.77
2023-03-25T20:58:50.305Z,8.15
2023-03-25T21:01:18.829Z,6.32
2023-03-25T21:03:49.448Z,9.27
2023-03-25T21:06:24.011Z,6.57
2023-03-25T21:08:54.858Z,8.20
2023-03-25T21:11:23.456Z,16.23
2023-03-25T21:13:52.205Z,16.98
2023-03-25T21:16:21.613Z,13.65
2023-03-25T21:18:50.891Z,16.45
2023-03-25T21:21:20.089Z,11.48
2023-03-25T21:23:49.667Z,12.77
2023-03-25T21:26:17.898Z,15.10
2023-03-25T21:28:46.268Z,12.30
2023-03-25T21:31:19.672Z,14.02
2023-03-25T21:33:53.178Z,15.68
2023-03-25T21:36:24.786Z,17.52
2023-03-25T21:38:58.324Z,18.10
2023-03-25T21:41:27.232Z,15.07
2023-03-25T21:43:55.800Z,15.00
2023-03-25T21:46:24.623Z,19.50
2023-03-25T21:48:54.120Z,19.13
2023-03-25T21:51:22.101Z,17.77
2023-03-25T21:53:50.553Z,19.17
2023-03-25T21:56:20.448Z,19.83
2023-03-25T21:58:49.024Z,21.42
2023-03-25T22:01:23.572Z,22.70
2023-03-25T22:03:55.469Z,23.48
2023-03-25T22:06:32.196Z,20.08
2023-03-25T22:09:05.573Z,23.95
2023-03-25T22:11:35.478Z,21.50
2023-03-25T22:14:06.054Z,19.50
2023-03-25T22:16:34.294Z,20.58
2023-03-25T22:19:02.606Z,20.30
2023-03-25T22:21:34.465Z,22.60
2023-03-25T22:24:03.789Z,21.70
2023-03-25T22:26:32.621Z,22.75
2023-03-25T22:29:02.883Z,23.10
2023-03-25T22:31:39.869Z,23.55
2023-03-25T22:34:15.975Z,24.40
2023-03-25T22:36:50.446Z,25.90
2023-03-25T22:39:20.849Z,28.48
2023-03-25T22:41:49.006Z,25.02
2023-03-25T22:44:18.762Z,29.83
2023-03-25T22:46:48.484Z,29.80
2023-03-25T22:49:17.930Z,29.70
2023-03-25T22:51:46.538Z,29.90
2023-03-25T22:54:14.974Z,29.50
2023-03-25T22:56:44.177Z,27.10
2023-03-25T22:59:13.817Z,27.42
2023-03-25T23:01:42.958Z,28.33
2023-03-25T23:04:11.819Z,24.95
2023-03-25T23:06:41.875Z,26.80
2023-03-25T23:09:11.145Z,25.08
2023-03-25T23:11:39.003Z,26.88
2023-03-25T23:14:10.705Z,25.42
2023-03-25T23:16:39.463Z,21.10
2023-03-25T23:19:10.282Z,25.17
2023-03-25T23:21:38.586Z,23.67
2023-03-25T23:24:07.363Z,21.80
2023-03-25T23:26:40.680Z,23.80
2023-03-25T23:29:10.880Z,20.80
2023-03-25T23:31:41.771Z,27.20
2023-03-25T23:34:13.798Z,25.25
2023-03-25T23:36:43.083Z,26.67
2023-03-25T23:39:17.695Z,23.23
2023-03-25T23:41:45.603Z,21.75
2023-03-25T23:44:13.612Z,18.63
2023-03-25T23:46:42.087Z,19.10
2023-03-25T23:49:11.497Z,17.73
2023-03-25T23:51:42.022Z,21.48
2023-03-25T23:54:13.639Z,17.65
2023-03-25T23:56:42.612Z,20.48
2023-03-25T23:59:12.207Z,17.75
